createdAt,value
2023-02-15T00:01:15.237Z,42.20
2023-02-15T00:06:18.806Z,37.30
2023-02-15T00:11:40.658Z,34.73
2023-02-15T00:16:45.206Z,30.92
2023-02-15T00:21:49.683Z,36.73
2023-02-15T00:26:54.095Z,45.13
2023-02-15T00:31:57.270Z,45.20
2023-02-15T00:37:00.342Z,33.57
2023-02-15T00:42:03.572Z,30.43
2023-02-15T00:47:06.460Z,33.83
2023-02-15T00:52:09.363Z,31.30
2023-02-15T00:57:12.323Z,31.93
2023-02-15T01:02:15.567Z,31.63
2023-02-15T01:07:18.449Z,35.83
2023-02-15T01:12:21.311Z,33.20
2023-02-15T01:17:24.413Z,30.83
2023-02-15T01:22:27.476Z,31.33
2023-02-15T01:27:31.977Z,38.63
2023-02-15T01:32:34.772Z,30.47
2023-02-15T01:37:37.934Z,38.87
2023-02-15T01:42:41.645Z,30.43
2023-02-15T01:47:51.955Z,30.90
2023-02-15T01:53:38.025Z,35.63
2023-02-15T01:58:42.292Z,36.80
2023-02-15T02:03:58.836Z,40.80
2023-02-15T02:09:03.158Z,29.73
2023-02-15T02:14:06.233Z,30.60
2023-02-15T02:19:36.486Z,35.37
2023-02-15T02:25:02.195Z,32.23
2023-02-15T02:30:23.965Z,35.00
2023-02-15T02:36:04.326Z,31.67
2023-02-15T02:41:28.507Z,39.07
2023-02-15T02:47:13.287Z,37.10
2023-02-15T02:52:46.550Z,48.50
2023-02-15T02:58:30.438Z,48.17
2023-02-15T03:03:43.166Z,54.17
2023-02-15T03:09:17.891Z,47.07
2023-02-15T03:14:21.285Z,47.40
2023-02-15T03:19:30.489Z,54.90
2023-02-15T03:24:52.482Z,49.80
2023-02-15T03:30:00.691Z,50.05
2023-02-15T03:35:04.251Z,62.97
2023-02-15T03:40:45.680Z,43.87
2023-02-15T03:45:57.776Z,51.83
2023-02-15T03:51:27.097Z,45.40
2023-02-15T03:56:30.716Z,47.67
2023-02-15T04:01:59.446Z,41.40
2023-02-15T04:07:04.523Z,47.23
2023-02-15T04:12:07.881Z,43.70
2023-02-15T04:17:11.190Z,55.33
2023-02-15T04:22:32.587Z,53.83
2023-02-15T04:27:35.711Z,45.93
2023-02-15T04:32:39.728Z,55.60
2023-02-15T04:37:43.884Z,35.90
2023-02-15T04:42:50.170Z,42.37
2023-02-15T04:47:53.278Z,50.60
2023-02-15T04:52:56.298Z,38.53
2023-02-15T04:57:59.210Z,35.67
2023-02-15T05:03:02.258Z,30.87
2023-02-15T05:08:05.301Z,34.87
2023-02-15T05:13:08.328Z,41.53
2023-02-15T05:18:11.374Z,26.43
2023-02-15T05:23:14.922Z,29.90
2023-02-15T05:28:20.891Z,36.47
2023-02-15T05:33:23.950Z,32.47
2023-02-15T05:38:27.072Z,36.53
2023-02-15T05:43:30.598Z,47.57
2023-02-15T05:48:34.091Z,37.23
2023-02-15T05:53:39.465Z,35.30
2023-02-15T05:58:43.484Z,48.20
2023-02-15T06:03:47.344Z,50.87
2023-02-15T06:08:51.087Z,41.07
2023-02-15T06:13:53.951Z,41.33
2023-02-15T06:18:56.967Z,36.67
2023-02-15T06:24:00.059Z,33.40
2023-02-15T06:29:03.723Z,48.70
2023-02-15T06:34:07.630Z,37.50
2023-02-15T06:39:10.710Z,46.40
2023-02-15T06:44:13.752Z,57.60
2023-02-15T06:49:19.106Z,62.83
2023-02-15T06:54:22.169Z,70.63
2023-02-15T06:59:25.219Z,68.37
2023-02-15T07:04:30.547Z,69.57
2023-02-15T07:09:33.625Z,74.43
2023-02-15T07:14:36.713Z,93.13
2023-02-15T07:19:39.720Z,71.37
2023-02-15T07:24:42.544Z,66.57
2023-02-15T07:29:45.488Z,60.37
2023-02-15T07:34:48.364Z,68.70
2023-02-15T07:39:51.604Z,62.37
2023-02-15T07:44:54.604Z,66.37
2023-02-15T07:49:57.720Z,152.87
2023-02-15T07:55:00.810Z,117.00
2023-02-15T08:00:05.184Z,55.67
2023-02-15T08:05:09.494Z,41.23
2023-02-15T08:10:32.434Z,56.60
2023-02-15T08:15:35.365Z,61.33
2023-02-15T08:20:38.389Z,49.63
2023-02-15T08:25:41.379Z,50.30
2023-02-15T08:30:44.448Z,107.73
2023-02-15T08:35:48.032Z,48.80
2023-02-15T08:40:51.009Z,36.60
2023-02-15T08:45:53.982Z,51.10
2023-02-15T08:50:56.994Z,35.07
2023-02-15T08:56:00.874Z,29.00
2023-02-15T09:01:19.439Z,30.40
2023-02-15T09:06:23.584Z,32.27
2023-02-15T09:11:29.881Z,25.33
2023-02-15T09:16:36.341Z,39.97
2023-02-15T09:21:40.075Z,26.43
2023-02-15T09:26:45.990Z,27.70
2023-02-15T09:31:51.527Z,28.47
2023-02-15T09:36:54.627Z,119.18
2023-02-15T09:42:44.918Z,29.40
2023-02-15T09:48:02.820Z,32.58
2023-02-15T09:53:29.960Z,60.97
2023-02-15T09:58:57.171Z,49.42
2023-02-15T10:04:22.136Z,35.83
2023-02-15T10:09:46.839Z,27.27
2023-02-15T10:15:12.646Z,37.08
2023-02-15T10:20:51.162Z,43.67
2023-02-15T10:26:03.537Z,48.47
2023-02-15T10:31:34.872Z,32.30
2023-02-15T10:37:36.694Z,24.88
2023-02-15T10:43:31.686Z,31.13
2023-02-15T10:48:43.531Z,26.67
2023-02-15T10:54:10.977Z,24.95
2023-02-15T10:59:25.795Z,29.55
2023-02-15T11:05:01.517Z,31.33
2023-02-15T11:10:41.436Z,50.80
2023-02-15T11:16:09.594Z,33.30
2023-02-15T11:21:41.253Z,103.60
2023-02-15T11:26:57.819Z,55.30
2023-02-15T11:32:15.559Z,42.97
2023-02-15T11:37:25.376Z,29.05
2023-02-15T11:42:31.521Z,32.55
2023-02-15T11:47:35.064Z,25.55
2023-02-15T11:52:38.050Z,53.45
2023-02-15T11:57:49.515Z,49.28
2023-02-15T12:02:56.148Z,39.92
2023-02-15T12:08:10.689Z,33.83
2023-02-15T12:13:19.630Z,42.33
2023-02-15T12:18:37.596Z,33.57
2023-02-15T12:23:51.041Z,39.70
2023-02-15T12:28:55.623Z,36.33
2023-02-15T12:34:03.559Z,37.17
2023-02-15T12:39:12.906Z,31.73
2023-02-15T12:44:24.831Z,30.67
2023-02-15T12:49:30.800Z,36.47
2023-02-15T12:54:42.809Z,41.27
2023-02-15T13:00:00.494Z,47.47
2023-02-15T13:05:31.980Z,36.90
2023-02-15T13:10:40.904Z,155.32
2023-02-15T13:15:49.535Z,126.40
2023-02-15T13:20:53.758Z,38.47
2023-02-15T13:26:04.034Z,134.37
2023-02-15T13:31:19.961Z,41.10
2023-02-15T13:36:39.287Z,47.63
2023-02-15T13:42:10.083Z,41.97
2023-02-15T13:47:27.159Z,33.07
2023-02-15T13:52:34.045Z,37.57
2023-02-15T13:58:15.134Z,41.13
2023-02-15T14:04:03.149Z,38.07
2023-02-15T14:09:48.608Z,37.27
2023-02-15T14:15:27.582Z,34.40
2023-02-15T14:20:51.752Z,32.73
2023-02-15T14:26:21.054Z,35.13
2023-02-15T14:31:35.580Z,53.73
2023-02-15T14:36:38.855Z,41.23
2023-02-15T14:41:54.425Z,28.80
2023-02-15T14:47:15.832Z,55.17
2023-02-15T14:52:18.672Z,35.05
2023-02-15T14:57:27.440Z,29.17
2023-02-15T15:02:51.443Z,32.10
2023-02-15T15:07:59.175Z,34.90
2023-02-15T15:13:34.113Z,35.43
2023-02-15T15:18:49.051Z,32.37
2023-02-15T15:23:52.354Z,36.33
2023-02-15T15:28:58.736Z,37.00
2023-02-15T15:35:02.282Z,31.87
2023-02-15T15:46:00.377Z,37.37
2023-02-15T15:51:32.195Z,35.03
2023-02-15T15:56:38.475Z,29.07
2023-02-15T16:01:45.415Z,40.00
2023-02-15T16:06:48.412Z,81.67
2023-02-15T16:12:06.219Z,44.63
2023-02-15T16:17:20.709Z,54.13
2023-02-15T16:22:30.250Z,51.33
2023-02-15T16:27:41.793Z,41.67
2023-02-15T16:32:44.838Z,35.90
2023-02-15T16:37:48.284Z,44.57
2023-02-15T16:43:23.714Z,51.07
2023-02-15T16:48:28.778Z,35.57
2023-02-15T16:53:31.878Z,43.30
2023-02-15T16:58:43.674Z,39.73
2023-02-15T17:03:51.311Z,43.80
2023-02-15T17:09:15.728Z,47.53
2023-02-15T17:14:28.012Z,60.40
2023-02-15T17:19:40.991Z,48.27
2023-02-15T17:24:46.960Z,60.33
2023-02-15T17:29:59.458Z,88.10
2023-02-15T17:35:25.996Z,78.00
2023-02-15T17:40:33.285Z,77.00
2023-02-15T17:45:50.191Z,86.30
2023-02-15T17:50:53.414Z,89.47
2023-02-15T17:55:59.350Z,82.43
2023-02-15T18:01:35.417Z,81.00
2023-02-15T18:07:00.723Z,91.77
2023-02-15T18:12:15.835Z,61.07
2023-02-15T18:17:19.278Z,53.90
2023-02-15T18:22:23.576Z,60.40
2023-02-15T18:27:27.393Z,58.00
2023-02-15T18:32:36.393Z,61.50
2023-02-15T18:37:39.840Z,68.90
2023-02-15T18:42:51.616Z,51.10
2023-02-15T18:48:00.629Z,52.67
2023-02-15T18:53:07.809Z,59.97
2023-02-15T18:58:18.398Z,50.20
2023-02-15T19:03:24.077Z,49.23
2023-02-15T19:08:26.906Z,74.63
2023-02-15T19:13:30.352Z,53.27
2023-02-15T19:18:33.603Z,44.23
2023-02-15T19:23:36.882Z,68.43
2023-02-15T19:28:40.143Z,72.60
2023-02-15T19:33:43.585Z,87.13
2023-02-15T19:38:51.261Z,96.60
2023-02-15T19:43:56.296Z,86.70
2023-02-15T19:48:59.922Z,87.63
2023-02-15T19:54:03.111Z,76.80
2023-02-15T19:59:23.644Z,63.57
2023-02-15T20:04:27.308Z,53.13
2023-02-15T20:09:35.494Z,63.47
2023-02-15T20:14:38.436Z,58.83
2023-02-15T20:19:41.685Z,105.33
2023-02-15T20:24:44.695Z,72.30
2023-02-15T20:29:48.170Z,99.57
2023-02-15T20:34:51.136Z,72.33
2023-02-15T20:39:54.623Z,72.07
2023-02-15T20:44:57.404Z,77.37
2023-02-15T20:50:01.885Z,109.80
2023-02-15T20:55:27.140Z,107.23
2023-02-15T21:00:32.229Z,122.50
2023-02-15T21:05:35.224Z,146.63
2023-02-15T21:10:38.632Z,156.60
2023-02-15T21:15:41.655Z,109.67
2023-02-15T21:20:48.436Z,123.33
2023-02-15T21:25:51.773Z,122.03
2023-02-15T21:31:00.066Z,95.43
2023-02-15T21:36:03.177Z,77.70
2023-02-15T21:41:25.098Z,75.00
2023-02-15T21:46:47.010Z,63.80
2023-02-15T21:52:09.681Z,53.90
2023-02-15T21:57:18.728Z,55.23
2023-02-15T22:02:30.494Z,48.17
2023-02-15T22:07:33.484Z,49.65
2023-02-15T22:12:38.374Z,88.30
2023-02-15T22:17:41.107Z,52.43
2023-02-15T22:22:44.007Z,76.00
2023-02-15T22:27:48.259Z,65.33
2023-02-15T22:32:54.793Z,73.33
2023-02-15T22:37:58.281Z,65.27
2023-02-15T22:43:05.715Z,80.17
2023-02-15T22:48:11.501Z,63.13
2023-02-15T22:53:15.133Z,79.90
2023-02-15T22:58:24.810Z,59.63
2023-02-15T23:03:31.487Z,70.03
2023-02-15T23:08:35.723Z,81.70
2023-02-15T23:13:38.825Z,91.60
2023-02-15T23:18:47.282Z,74.17
2023-02-15T23:23:57.580Z,81.50
2023-02-15T23:29:04.012Z,96.83
2023-02-15T23:34:25.955Z,86.70
2023-02-15T23:39:47.673Z,66.65
2023-02-15T23:44:51.548Z,87.65
2023-02-15T23:49:54.536Z,98.63
2023-02-15T23:54:57.484Z,79.37
